Time;durP1;ratioP1;P1;durP2;ratioP2;P2;SDS_P1;SDS_P2;PMS_P1;PMS_P2;Temp;Humidity;BMP_temperature;BMP_pressure;BME280_temperature;BME280_humidity;BME280_pressure;Samples;Min_cycle;Max_cycle;Signal;HPM_P1;HPM_P2
2022/07/28 00:00:07;;;;;;;;;;;;;;;25.53;73.76;96717.95;600414;236;65099;-62
2022/07/28 00:02:34;;;;;;;;;;;;;;;25.53;73.64;96721.43;600408;236;66286;-62
2022/07/28 00:05:02;;;;;;;;;;;;;;;25.54;73.84;96727.62;600421;236;65922;-62
2022/07/28 00:07:29;;;;;;;;;;;;;;;25.54;73.90;96730.32;600404;236;62821;-62
2022/07/28 00:09:57;;;;;;;;;;;;;;;25.53;73.82;96728.71;600415;236;66184;-62
2022/07/28 00:12:24;;;;;;;;;;;;;;;25.53;73.65;96731.40;600385;236;66557;-62
2022/07/28 00:14:52;;;;;;;;;;;;;;;25.54;73.71;96730.32;600459;236;62844;-62
2022/07/28 00:17:20;;;;;;;;;;;;;;;25.52;74.01;96727.92;600367;236;68609;-62
2022/07/28 00:19:47;;;;;;;;;;;;;;;25.53;73.92;96720.64;600408;236;68224;-62
2022/07/28 00:22:15;;;;;;;;;;;;;;;25.53;73.75;96726.02;600393;236;62845;-62
2022/07/28 00:24:44;;;;;;;;;;;;;;;25.54;73.84;96724.94;600410;236;68490;-62
2022/07/28 00:27:13;;;;;;;;;;;;;;;25.52;74.02;96717.16;600418;236;68504;-63
2022/07/28 00:29:41;;;;;;;;;;;;;;;25.53;73.97;96717.95;600443;236;65930;-62
2022/07/28 00:32:08;;;;;;;;;;;;;;;25.52;73.83;96710.99;600396;236;68351;-62
2022/07/28 00:34:36;;;;;;;;;;;;;;;25.54;73.84;96716.87;600404;236;68522;-62
2022/07/28 00:37:03;;;;;;;;;;;;;;;25.51;73.93;96710.20;600370;236;65259;-62
2022/07/28 00:39:31;;;;;;;;;;;;;;;25.53;73.93;96715.26;600395;236;68626;-62
2022/07/28 00:41:58;;;;;;;;;;;;;;;25.53;73.88;96718.73;600445;236;68682;-63
2022/07/28 00:44:26;;;;;;;;;;;;;;;25.53;73.94;96715.26;600377;236;65081;-62
2022/07/28 00:46:54;;;;;;;;;;;;;;;25.52;73.98;96716.37;600385;236;65896;-70
2022/07/28 00:49:21;;;;;;;;;;;;;;;25.52;73.92;96710.99;600410;236;66185;-71
2022/07/28 00:51:49;;;;;;;;;;;;;;;25.53;74.02;96712.56;600399;236;66190;-70
2022/07/28 00:54:16;;;;;;;;;;;;;;;25.53;73.88;96717.95;600456;236;66294;-71
2022/07/28 00:56:44;;;;;;;;;;;;;;;25.52;74.00;96721.75;600325;236;66494;-70
2022/07/28 00:59:11;;;;;;;;;;;;;;;25.53;73.88;96721.43;600394;236;62673;-71
2022/07/28 01:01:39;;;;;;;;;;;;;;;25.52;73.86;96711.78;600391;236;68629;-71
2022/07/28 01:04:06;;;;;;;;;;;;;;;25.52;73.88;96727.92;600391;236;68345;-71
2022/07/28 01:06:38;;;;;;;;;;;;;;;25.51;73.84;96723.66;600433;236;65148;-71
2022/07/28 01:09:07;;;;;;;;;;;;;;;25.52;74.12;96721.75;600376;236;69339;-71
2022/07/28 01:11:39;;;;;;;;;;;;;;;25.53;74.11;96726.02;600275;235;68462;-71
2022/07/28 01:14:25;;;;;;;;;;;;;;;25.54;73.95;96723.03;600300;235;65016;-71
2022/07/28 01:16:57;;;;;;;;;;;;;;;25.54;73.99;96719.55;600383;236;68489;-71
2022/07/28 01:19:27;;;;;;;;;;;;;;;25.52;74.11;96730.61;600238;235;68814;-71
2022/07/28 01:21:55;;;;;;;;;;;;;;;25.53;74.11;96731.40;600418;236;64878;-71
2022/07/28 01:24:33;;;;;;;;;;;;;;;25.52;74.28;96735.20;600386;236;68215;-70
2022/07/28 01:27:11;;;;;;;;;;;;;;;25.51;74.27;96734.41;600172;235;68592;-71
2022/07/28 01:29:40;;;;;;;;;;;;;;;25.54;74.12;96746.46;600200;235;62681;-70
2022/07/28 01:32:09;;;;;;;;;;;;;;;25.52;74.12;96743.28;600390;236;66196;-71
2022/07/28 01:34:38;;;;;;;;;;;;;;;25.52;74.31;96743.28;600069;235;66193;-70
2022/07/28 01:37:07;;;;;;;;;;;;;;;25.52;74.31;96745.97;600353;236;62672;-71
2022/07/28 01:39:35;;;;;;;;;;;;;;;25.51;74.32;96741.67;600320;236;65931;-71
2022/07/28 01:42:05;;;;;;;;;;;;;;;25.51;74.22;96738.98;600380;236;65938;-71
2022/07/28 01:44:33;;;;;;;;;;;;;;;25.51;74.64;96738.98;600430;236;63827;-71
2022/07/28 01:47:06;;;;;;;;;;;;;;;25.52;74.28;96743.28;600394;236;65646;-71
2022/07/28 01:49:31;;;;;;;;;;;;;;;25.52;74.18;96745.97;600318;235;70608;-71
2022/07/28 01:52:00;;;;;;;;;;;;;;;25.52;74.14;96745.97;600443;236;64937;-71
2022/07/28 01:54:29;;;;;;;;;;;;;;;25.51;74.49;96753.25;600406;236;68341;-71
2022/07/28 01:56:58;;;;;;;;;;;;;;;25.51;74.51;96752.43;600361;236;68956;-71
2022/07/28 01:59:26;;;;;;;;;;;;;;;25.51;74.80;96736.28;600360;236;65072;-70
2022/07/28 02:01:54;;;;;;;;;;;;;;;25.51;75.00;96747.05;600420;236;65954;-70
2022/07/28 02:04:22;;;;;;;;;;;;;;;25.51;74.62;96747.87;600436;236;68057;-70
2022/07/28 02:06:51;;;;;;;;;;;;;;;25.50;74.61;96740.88;600391;236;65099;-71
2022/07/28 02:09:20;;;;;;;;;;;;;;;25.51;74.36;96741.67;600404;236;68522;-71
2022/07/28 02:11:48;;;;;;;;;;;;;;;25.51;74.34;96736.28;600358;236;68340;-71
2022/07/28 02:14:17;;;;;;;;;;;;;;;25.51;74.34;96738.98;600393;236;65066;-71
2022/07/28 02:16:47;;;;;;;;;;;;;;;25.51;74.40;96742.48;600371;234;68316;-71
2022/07/28 02:19:16;;;;;;;;;;;;;;;25.51;74.65;96745.17;600389;236;66235;-71
2022/07/28 02:21:46;;;;;;;;;;;;;;;25.51;74.47;96744.36;600424;236;65079;-71
2022/07/28 02:24:14;;;;;;;;;;;;;;;25.51;74.36;96747.05;600363;236;68414;-70
2022/07/28 02:26:43;;;;;;;;;;;;;;;25.50;74.54;96748.95;600416;236;68437;-71
2022/07/28 02:29:12;;;;;;;;;;;;;;;25.50;74.41;96761.61;600358;236;64933;-71
2022/07/28 02:31:42;;;;;;;;;;;;;;;25.50;74.54;96761.61;600440;236;68632;-70
2022/07/28 02:34:12;;;;;;;;;;;;;;;25.51;74.49;96769.39;600439;236;65960;-71
2022/07/28 02:36:41;;;;;;;;;;;;;;;25.51;74.59;96776.64;600355;236;65157;-70
2022/07/28 02:39:10;;;;;;;;;;;;;;;25.51;74.57;96773.95;600413;236;68895;-70
2022/07/28 02:41:39;;;;;;;;;;;;;;;25.51;74.68;96776.64;600112;235;68561;-71
2022/07/28 02:44:14;;;;;;;;;;;;;;;25.51;75.14;96785.53;600250;235;64908;-71
2022/07/28 02:46:43;;;;;;;;;;;;;;;25.50;75.19;96781.23;600436;236;65997;-71
2022/07/28 02:49:12;;;;;;;;;;;;;;;25.49;74.79;96782.34;600397;236;68299;-71
2022/07/28 02:51:41;;;;;;;;;;;;;;;25.50;74.85;96791.21;600420;236;62738;-71
2022/07/28 02:54:10;;;;;;;;;;;;;;;25.50;75.69;96794.69;600411;236;65810;-71
2022/07/28 02:56:40;;;;;;;;;;;;;;;25.49;75.57;96792.32;600317;236;68500;-71
2022/07/28 02:59:08;;;;;;;;;;;;;;;25.49;75.26;96798.48;600462;236;65110;-70
2022/07/28 03:01:36;;;;;;;;;;;;;;;25.50;75.36;96804.66;600395;236;68544;-71
2022/07/28 03:04:04;;;;;;;;;;;;;;;25.50;75.21;96799.28;600341;236;68553;-71
2022/07/28 03:06:32;;;;;;;;;;;;;;;25.49;75.17;96806.56;600384;236;65063;-71
2022/07/28 03:08:59;;;;;;;;;;;;;;;25.50;75.08;96807.35;600399;236;69806;-71
2022/07/28 03:11:27;;;;;;;;;;;;;;;25.49;75.56;96813.84;600416;236;68559;-71
2022/07/28 03:13:54;;;;;;;;;;;;;;;25.49;75.96;96806.56;600405;236;65131;-70
2022/07/28 03:16:22;;;;;;;;;;;;;;;25.49;75.88;96805.77;600388;236;66410;-71
2022/07/28 03:18:50;;;;;;;;;;;;;;;25.49;75.79;96803.88;600375;236;66415;-71
2022/07/28 03:21:17;;;;;;;;;;;;;;;25.49;75.68;96806.56;600402;236;64875;-71
2022/07/28 03:23:46;;;;;;;;;;;;;;;25.49;75.71;96808.47;600446;236;68912;-70
2022/07/28 03:26:24;;;;;;;;;;;;;;;25.48;75.44;96799.57;600393;236;68481;-71
2022/07/28 03:28:52;;;;;;;;;;;;;;;25.47;75.71;96801.47;600272;236;62799;-71
2022/07/28 03:31:20;;;;;;;;;;;;;;;25.47;75.75;96798.78;600385;236;68583;-71
2022/07/28 03:33:49;;;;;;;;;;;;;;;25.48;76.00;96799.57;600208;236;68739;-71
2022/07/28 03:36:18;;;;;;;;;;;;;;;25.47;76.14;96800.69;600378;236;64964;-71
2022/07/28 03:38:47;;;;;;;;;;;;;;;25.47;76.24;96801.47;600335;235;68695;-71
2022/07/28 03:41:16;;;;;;;;;;;;;;;25.46;76.36;96810.66;600326;236;68520;-71
2022/07/28 03:43:44;;;;;;;;;;;;;;;25.48;76.27;96813.02;600346;236;64945;-70
2022/07/28 03:46:12;;;;;;;;;;;;;;;25.47;76.68;96811.45;600404;236;68770;-70
2022/07/28 03:48:39;;;;;;;;;;;;;;;25.47;76.22;96812.23;600389;236;68357;-71
2022/07/28 03:51:07;;;;;;;;;;;;;;;25.47;76.06;96814.92;600410;236;65079;-71
2022/07/28 03:53:34;;;;;;;;;;;;;;;25.46;76.13;96816.03;600364;236;68678;-71
2022/07/28 03:56:02;;;;;;;;;;;;;;;25.46;76.04;96816.03;600458;236;68899;-71
2022/07/28 03:58:29;;;;;;;;;;;;;;;25.45;76.15;96817.15;600805;236;64823;-71
2022/07/28 04:00:58;;;;;;;;;;;;;;;25.46;76.14;96810.66;600781;236;68802;-71
2022/07/28 04:03:26;;;;;;;;;;;;;;;25.47;75.91;96811.45;600835;236;68562;-71
2022/07/28 04:05:57;;;;;;;;;;;;;;;25.46;76.22;96809.87;600788;236;64917;-71
2022/07/28 04:08:24;;;;;;;;;;;;;;;25.46;76.01;96820.63;600769;236;66685;-71
2022/07/28 04:10:52;;;;;;;;;;;;;;;25.46;76.01;96816.03;600795;236;66436;-71
2022/07/28 04:13:20;;;;;;;;;;;;;;;25.46;76.08;96816.03;600817;236;65013;-71
2022/07/28 04:15:48;;;;;;;;;;;;;;;25.46;76.32;96810.66;600741;236;68481;-71
2022/07/28 04:18:15;;;;;;;;;;;;;;;25.46;76.28;96813.34;600858;236;68529;-71
2022/07/28 04:20:43;;;;;;;;;;;;;;;25.45;76.59;96817.15;600769;236;64752;-71
2022/07/28 04:23:10;;;;;;;;;;;;;;;25.46;76.32;96815.25;600743;236;68919;-71
2022/07/28 04:25:38;;;;;;;;;;;;;;;25.46;76.66;96813.34;600774;236;68627;-72
2022/07/28 04:28:05;;;;;;;;;;;;;;;25.45;76.35;96819.84;600746;236;65265;-71
2022/07/28 04:30:33;;;;;;;;;;;;;;;25.45;76.16;96822.53;600831;236;68688;-71
2022/07/28 04:33:00;;;;;;;;;;;;;;;25.45;76.74;96811.77;600781;236;66472;-71
2022/07/28 04:35:28;;;;;;;;;;;;;;;25.46;76.34;96815.25;600761;236;62799;-71
2022/07/28 04:37:57;;;;;;;;;;;;;;;25.45;76.45;96817.15;600825;236;66524;-71
2022/07/28 04:40:25;;;;;;;;;;;;;;;25.45;76.62;96822.53;600748;236;68631;-71
2022/07/28 04:42:53;;;;;;;;;;;;;;;25.45;76.79;96817.15;600854;236;64971;-71
2022/07/28 04:45:21;;;;;;;;;;;;;;;25.45;76.77;96817.15;600755;236;66420;-71
2022/07/28 04:47:50;;;;;;;;;;;;;;;25.44;76.59;96818.23;600781;236;68721;-71
2022/07/28 04:50:20;;;;;;;;;;;;;;;25.45;76.75;96819.02;600764;236;62769;-71
2022/07/28 04:52:53;;;;;;;;;;;;;;;25.46;76.72;96824.11;600780;236;68617;-71
2022/07/28 04:55:17;;;;;;;;;;;;;;;25.45;76.75;96825.22;600508;236;66374;-71
2022/07/28 04:57:45;;;;;;;;;;;;;;;25.46;76.93;96826.01;600372;236;62801;-71
2022/07/28 05:00:13;;;;;;;;;;;;;;;25.45;76.76;96822.53;600543;236;68782;-63
2022/07/28 05:02:41;;;;;;;;;;;;;;;25.45;76.83;96825.22;600370;236;68338;-63
2022/07/28 05:05:09;;;;;;;;;;;;;;;25.44;76.75;96820.13;600354;236;62809;-63
2022/07/28 05:07:37;;;;;;;;;;;;;;;25.44;76.79;96817.44;600416;236;68881;-63
2022/07/28 05:10:06;;;;;;;;;;;;;;;25.44;76.92;96818.23;600399;236;68833;-63
2022/07/28 05:12:33;;;;;;;;;;;;;;;25.45;76.66;96819.02;600357;236;65165;-63
2022/07/28 05:15:01;;;;;;;;;;;;;;;25.45;76.54;96819.84;600360;236;68671;-63
2022/07/28 05:17:28;;;;;;;;;;;;;;;25.44;76.74;96812.84;600361;236;66234;-63
2022/07/28 05:19:56;;;;;;;;;;;;;;;25.44;76.62;96815.54;600377;236;64739;-63
2022/07/28 05:22:23;;;;;;;;;;;;;;;25.44;76.47;96823.61;600432;236;66438;-63
2022/07/28 05:24:51;;;;;;;;;;;;;;;25.45;76.65;96819.02;600343;236;68554;-63
2022/07/28 05:27:19;;;;;;;;;;;;;;;25.44;76.72;96826.30;600382;236;64863;-63
2022/07/28 05:29:46;;;;;;;;;;;;;;;25.45;76.50;96824.40;600330;236;66089;-63
2022/07/28 05:32:14;;;;;;;;;;;;;;;25.44;76.51;96818.23;600376;236;68762;-63
2022/07/28 05:34:41;;;;;;;;;;;;;;;25.44;76.53;96818.23;600387;236;64991;-63
2022/07/28 05:37:09;;;;;;;;;;;;;;;25.44;76.60;96823.61;600347;236;68763;-63
2022/07/28 05:39:36;;;;;;;;;;;;;;;25.43;76.36;96822.03;600369;236;69409;-63
2022/07/28 05:42:05;;;;;;;;;;;;;;;25.44;76.50;96820.92;600337;236;65139;-63
2022/07/28 05:44:32;;;;;;;;;;;;;;;25.44;76.48;96818.23;600340;236;68627;-63
2022/07/28 05:47:00;;;;;;;;;;;;;;;25.43;76.50;96827.41;600329;236;68658;-63
2022/07/28 05:49:27;;;;;;;;;;;;;;;25.45;76.52;96819.02;600345;236;65178;-64
2022/07/28 05:51:55;;;;;;;;;;;;;;;25.44;76.51;96822.82;600384;236;68143;-68
2022/07/28 05:54:22;;;;;;;;;;;;;;;25.44;76.79;96820.13;600322;236;68256;-70
2022/07/28 05:56:50;;;;;;;;;;;;;;;25.43;77.46;96816.65;600620;235;65286;-67
2022/07/28 05:59:17;;;;;;;;;;;;;;;25.43;75.48;96816.65;600181;236;66146;-69
2022/07/28 06:01:45;;;;;;;;;;;;;;;25.44;73.88;96815.54;600184;236;66207;-68
2022/07/28 06:04:13;;;;;;;;;;;;;;;25.46;76.70;96820.63;599933;236;64938;-69
2022/07/28 06:06:40;;;;;;;;;;;;;;;25.45;76.04;96819.84;600552;236;68539;-70
2022/07/28 06:09:08;;;;;;;;;;;;;;;25.45;76.46;96822.53;600687;236;69462;-69
2022/07/28 06:11:35;;;;;;;;;;;;;;;25.45;76.26;96819.84;600703;236;64877;-68
2022/07/28 06:14:03;;;;;;;;;;;;;;;25.46;73.99;96821.42;600739;236;66019;-69
2022/07/28 06:16:30;;;;;;;;;;;;;;;25.47;73.37;96816.83;600756;235;68699;-69
2022/07/28 06:18:58;;;;;;;;;;;;;;;25.47;72.82;96820.30;590011;240;65085;-69
2022/07/28 06:21:25;;;;;;;;;;;;;;;25.49;73.73;96819.23;590538;240;68688;-69
2022/07/28 06:23:53;;;;;;;;;;;;;;;25.51;73.88;96830.45;590524;240;66668;-69
2022/07/28 06:26:20;;;;;;;;;;;;;;;25.50;73.91;96832.36;590603;240;62789;-69
2022/07/28 06:28:48;;;;;;;;;;;;;;;25.51;73.95;96836.66;590565;240;66507;-69
2022/07/28 06:31:15;;;;;;;;;;;;;;;25.51;73.85;96833.14;590483;240;66422;-69
2022/07/28 06:33:43;;;;;;;;;;;;;;;25.52;73.50;96835.55;591938;236;65173;-69
2022/07/28 06:36:11;;;;;;;;;;;;;;;25.52;74.21;96830.16;597900;236;68918;-69
2022/07/28 06:38:38;;;;;;;;;;;;;;;25.52;74.26;96826.69;597505;237;68593;-69
2022/07/28 06:41:05;;;;;;;;;;;;;;;25.55;74.47;96821.48;597764;237;65076;-69
2022/07/28 06:43:33;;;;;;;;;;;;;;;25.56;75.15;96827.66;597742;237;68665;-67
2022/07/28 06:46:01;;;;;;;;;;;;;;;25.55;74.11;96823.37;597748;237;68737;-67
2022/07/28 06:48:28;;;;;;;;;;;;;;;25.54;74.46;96824.49;597601;237;65000;-68
2022/07/28 06:50:58;;;;;;;;;;;;;;;25.54;74.28;96832.56;597784;237;66523;-67
2022/07/28 06:53:26;;;;;;;;;;;;;;;25.55;74.73;96831.45;597837;236;66430;-69
2022/07/28 06:55:53;;;;;;;;;;;;;;;25.55;74.70;96836.83;597868;236;62785;-69
2022/07/28 06:58:21;;;;;;;;;;;;;;;25.55;74.83;96840.31;597669;237;68720;-68
2022/07/28 07:00:48;;;;;;;;;;;;;;;25.55;75.11;96839.52;597394;237;69838;-68
2022/07/28 07:03:16;;;;;;;;;;;;;;;25.56;75.19;96846.48;597710;237;64850;-68
2022/07/28 07:05:44;;;;;;;;;;;;;;;25.55;75.07;96843.00;597736;237;68848;-66
2022/07/28 07:08:11;;;;;;;;;;;;;;;25.56;75.38;96849.17;597748;237;68506;-66
2022/07/28 07:10:39;;;;;;;;;;;;;;;25.56;75.20;96846.48;601043;236;63839;-67
2022/07/28 07:13:07;;;;;;;;;;;;;;;25.57;75.13;96848.09;600196;236;68949;-69
2022/07/28 07:15:34;;;;;;;;;;;;;;;25.56;75.28;96847.27;597768;237;68699;-65
2022/07/28 07:18:02;;;;;;;;;;;;;;;25.57;75.34;96853.48;598176;236;63036;-65
2022/07/28 07:20:29;;;;;;;;;;;;;;;25.57;75.63;96851.58;597741;237;66788;-70
2022/07/28 07:22:57;;;;;;;;;;;;;;;25.56;75.30;96860.73;597760;237;66399;-69
2022/07/28 07:25:25;;;;;;;;;;;;;;;25.57;75.40;96864.23;597704;237;64919;-69
2022/07/28 07:27:52;;;;;;;;;;;;;;;25.58;75.52;96860.44;597783;237;66417;-70
2022/07/28 07:30:20;;;;;;;;;;;;;;;25.58;75.71;96871.20;597794;237;68486;-70
2022/07/28 07:32:47;;;;;;;;;;;;;;;25.58;75.57;96863.13;597654;237;65062;-71
2022/07/28 07:35:15;;;;;;;;;;;;;;;25.58;75.83;96865.82;597685;237;66266;-71
2022/07/28 07:37:43;;;;;;;;;;;;;;;25.57;76.04;96859.64;597599;237;68856;-70
2022/07/28 07:40:10;;;;;;;;;;;;;;;25.57;76.02;96861.55;597679;237;64884;-60
2022/07/28 07:42:38;;;;;;;;;;;;;;;25.58;76.20;96868.52;597454;237;68677;-61
2022/07/28 07:45:06;;;;;;;;;;;;;;;25.58;76.41;96865.82;596929;237;69355;-61
2022/07/28 07:47:33;;;;;;;;;;;;;;;25.57;76.94;96864.23;597530;236;65061;-61
2022/07/28 07:50:01;;;;;;;;;;;;;;;25.57;76.92;96867.72;597741;237;68656;-61
2022/07/28 07:52:28;;;;;;;;;;;;;;;25.57;77.27;96870.41;597687;237;68598;-61
2022/07/28 07:54:56;;;;;;;;;;;;;;;25.58;77.48;96881.97;597773;237;65809;-61
2022/07/28 07:57:23;;;;;;;;;;;;;;;25.57;77.51;96877.70;597882;237;68439;-60
2022/07/28 07:59:50;;;;;;;;;;;;;;;25.57;77.61;96875.00;597781;237;68574;-60
2022/07/28 08:02:18;;;;;;;;;;;;;;;25.57;77.43;96878.48;597867;237;65070;-61
2022/07/28 08:04:46;;;;;;;;;;;;;;;25.57;77.44;96885.77;597942;237;66538;-61
2022/07/28 08:07:13;;;;;;;;;;;;;;;25.58;77.62;96881.97;597934;237;66311;-61
2022/07/28 08:09:41;;;;;;;;;;;;;;;25.57;77.81;96885.77;595132;237;65146;-61
2022/07/28 08:12:08;;;;;;;;;;;;;;;25.56;77.82;96887.64;593494;239;68652;-60
2022/07/28 08:14:36;;;;;;;;;;;;;;;25.57;77.73;96883.08;593447;239;68650;-61
2022/07/28 08:17:03;;;;;;;;;;;;;;;25.57;77.56;96889.25;593535;239;64979;-61
2022/07/28 08:19:31;;;;;;;;;;;;;;;25.57;77.62;96885.77;593545;239;68648;-61
2022/07/28 08:22:00;;;;;;;;;;;;;;;25.57;78.03;96896.53;593493;239;68593;-61
2022/07/28 08:24:27;;;;;;;;;;;;;;;25.57;78.24;96897.32;593489;239;62691;-61
2022/07/28 08:26:55;;;;;;;;;;;;;;;25.56;78.11;96902.99;593377;239;68831;-61
2022/07/28 08:29:22;;;;;;;;;;;;;;;25.57;78.17;96901.91;593465;239;68566;-61
2022/07/28 08:31:50;;;;;;;;;;;;;;;25.57;78.35;96899.22;593420;239;64885;-61
2022/07/28 08:34:18;;;;;;;;;;;;;;;25.57;78.51;96907.30;593223;239;66376;-61
2022/07/28 08:36:45;;;;;;;;;;;;;;;25.57;78.62;96907.30;593358;239;68971;-61
2022/07/28 08:39:13;;;;;;;;;;;;;;;25.56;78.60;96909.16;593389;239;62827;-62
2022/07/28 08:41:42;;;;;;;;;;;;;;;25.57;76.82;96907.30;593504;239;66447;-63
2022/07/28 08:44:11;;;;;;;;;;;;;;;25.59;72.98;96915.84;591841;239;66335;-62
2022/07/28 08:46:39;;;;;;;;;;;;;;;25.59;71.68;96915.84;593460;238;62760;-62
2022/07/28 08:49:07;;;;;;;;;;;;;;;25.61;72.22;96919.82;592458;239;68958;-62
2022/07/28 08:51:36;;;;;;;;;;;;;;;25.61;73.01;96919.82;593359;239;69155;-62
2022/07/28 08:54:05;;;;;;;;;;;;;;;25.63;74.03;96924.91;593498;239;63025;-62
2022/07/28 08:56:34;;;;;;;;;;;;;;;25.62;74.22;96917.95;595600;237;68856;-63
2022/07/28 08:59:02;;;;;;;;;;;;;;;25.61;74.50;96927.89;597049;237;68710;-60
2022/07/28 09:01:30;;;;;;;;;;;;;;;25.62;74.65;96926.81;597032;237;64893;-61
2022/07/28 09:03:58;;;;;;;;;;;;;;;25.62;74.64;96931.41;596981;237;66377;-61
2022/07/28 09:06:25;;;;;;;;;;;;;;;25.62;74.69;96931.41;596967;237;66411;-61
2022/07/28 09:08:53;;;;;;;;;;;;;;;25.62;74.78;96931.41;596951;237;64889;-61
2022/07/28 09:11:20;;;;;;;;;;;;;;;25.63;74.81;96932.98;596909;237;68374;-61
2022/07/28 09:13:48;;;;;;;;;;;;;;;25.63;74.77;96941.06;596816;237;69005;-62
2022/07/28 09:16:15;;;;;;;;;;;;;;;25.64;72.20;96934.56;596763;237;64876;-62
2022/07/28 09:18:43;;;;;;;;;;;;;;;25.65;73.79;96938.87;596843;237;68853;-62
2022/07/28 09:21:12;;;;;;;;;;;;;;;25.65;74.12;96942.34;596134;237;65281;-62
2022/07/28 09:23:47;;;;;;;;;;;;;;;25.65;74.41;96934.28;596665;237;65046;-62
2022/07/28 09:26:16;;;;;;;;;;;;;;;25.65;74.60;96936.97;596924;237;66387;-63
2022/07/28 09:28:53;;;;;;;;;;;;;;;25.64;74.86;96942.64;597012;237;66785;-61
2022/07/28 09:31:22;;;;;;;;;;;;;;;25.65;75.04;96941.56;596939;237;62873;-60
2022/07/28 09:33:53;;;;;;;;;;;;;;;25.66;74.15;96948.52;596983;237;68726;-60
2022/07/28 09:36:21;;;;;;;;;;;;;;;25.66;75.14;96948.52;596944;237;66560;-60
2022/07/28 09:38:49;;;;;;;;;;;;;;;25.65;75.01;96947.73;597046;237;65181;-60
2022/07/28 09:41:22;;;;;;;;;;;;;;;25.65;72.37;96942.34;596851;237;68699;-61
2022/07/28 09:43:51;;;;;;;;;;;;;;;25.65;71.66;96941.56;596984;237;68707;-60
2022/07/28 09:46:20;;;;;;;;;;;;;;;25.67;73.18;96944.72;596865;237;63873;-61
2022/07/28 09:48:55;;;;;;;;;;;;;;;25.66;73.33;96935.06;596705;237;68729;-60
2022/07/28 09:51:27;;;;;;;;;;;;;;;25.66;74.01;96940.45;596959;237;66443;-61
2022/07/28 09:53:56;;;;;;;;;;;;;;;25.65;74.49;96936.97;596930;237;65094;-61
2022/07/28 09:56:26;;;;;;;;;;;;;;;25.66;75.10;96937.75;596599;237;68711;-60
2022/07/28 09:58:53;;;;;;;;;;;;;;;25.65;75.07;96938.87;596968;237;65935;-68
2022/07/28 10:01:21;;;;;;;;;;;;;;;25.65;74.98;96930.80;596986;237;64923;-69
2022/07/28 10:03:51;;;;;;;;;;;;;;;25.66;75.06;96937.75;597027;237;68147;-68
2022/07/28 10:06:27;;;;;;;;;;;;;;;25.66;75.24;96937.75;596930;237;66712;-68
2022/07/28 10:08:55;;;;;;;;;;;;;;;25.65;75.49;96925.41;596991;237;62988;-68
2022/07/28 10:11:25;;;;;;;;;;;;;;;25.65;75.57;96930.80;597004;237;68793;-68
2022/07/28 10:13:54;;;;;;;;;;;;;;;25.65;75.71;96920.82;597032;237;68393;-68
2022/07/28 10:16:24;;;;;;;;;;;;;;;25.65;75.74;96933.48;596946;237;63929;-69
2022/07/28 10:18:51;;;;;;;;;;;;;;;25.64;75.83;96932.66;596827;237;66165;-69
2022/07/28 10:21:19;;;;;;;;;;;;;;;25.65;76.00;96928.10;596955;237;68660;-69
2022/07/28 10:23:48;;;;;;;;;;;;;;;25.65;75.97;96933.48;596996;237;62939;-69
2022/07/28 10:26:16;;;;;;;;;;;;;;;25.65;75.74;96933.48;596976;237;68361;-69
2022/07/28 10:28:45;;;;;;;;;;;;;;;25.66;75.85;96935.06;596937;237;67634;-70
2022/07/28 10:31:14;;;;;;;;;;;;;;;25.66;75.88;96927.78;596965;237;65135;-69
2022/07/28 10:33:43;;;;;;;;;;;;;;;25.66;76.01;96913.53;586450;237;70029;-69
2022/07/28 10:36:11;;;;;;;;;;;;;;;25.66;76.10;96918.92;596912;237;67302;-61
2022/07/28 10:38:39;;;;;;;;;;;;;;;25.65;76.08;96911.95;597001;237;64911;-60
2022/07/28 10:41:07;;;;;;;;;;;;;;;25.66;76.16;96916.23;597047;237;69658;-61
2022/07/28 10:43:35;;;;;;;;;;;;;;;25.66;76.05;96911.63;597022;237;68704;-60
2022/07/28 10:46:04;;;;;;;;;;;;;;;25.66;75.97;96906.25;597068;237;62739;-60
2022/07/28 10:48:32;;;;;;;;;;;;;;;25.66;76.34;96908.16;597018;237;68886;-61
2022/07/28 10:51:00;;;;;;;;;;;;;;;25.66;76.33;96905.46;596979;237;66226;-60
2022/07/28 10:53:30;;;;;;;;;;;;;;;25.66;76.45;96900.08;596916;237;63672;-62
2022/07/28 10:56:01;;;;;;;;;;;;;;;25.65;76.40;96906.57;596876;237;66489;-61
2022/07/28 10:58:40;;;;;;;;;;;;;;;25.67;76.23;96907.05;585940;237;69857;-62
2022/07/28 11:01:07;;;;;;;;;;;;;;;25.66;76.41;96903.56;585936;237;64306;-61
2022/07/28 11:03:38;;;;;;;;;;;;;;;25.66;76.41;96898.17;585643;237;70299;-61
2022/07/28 11:06:26;;;;;;;;;;;;;;;25.67;76.46;96898.97;596952;237;69673;-61
2022/07/28 11:08:54;;;;;;;;;;;;;;;25.67;76.41;96901.66;596941;237;64885;-61
2022/07/28 11:11:39;;;;;;;;;;;;;;;25.68;74.05;96893.30;597018;237;68784;-62
2022/07/28 11:14:32;;;;;;;;;;;;;;;25.70;75.85;96890.31;597024;237;68683;-61
2022/07/28 11:17:03;;;;;;;;;;;;;;;25.68;75.77;96893.30;596686;237;43467;-62
2022/07/28 11:19:31;;;;;;;;;;;;;;;25.68;75.86;96892.50;597006;237;66518;-62
2022/07/28 11:22:26;;;;;;;;;;;;;;;25.68;76.03;96897.89;597040;237;69375;-63
2022/07/28 11:25:01;;;;;;;;;;;;;;;25.67;76.27;96886.33;596571;237;62909;-60
2022/07/28 11:27:49;;;;;;;;;;;;;;;25.67;76.22;96888.20;597003;237;68824;-62
2022/07/28 11:30:14;;;;;;;;;;;;;;;25.66;76.32;96879.34;596732;237;68796;-62
2022/07/28 11:32:52;;;;;;;;;;;;;;;25.65;76.50;96874.28;596264;237;65133;-61
2022/07/28 11:35:21;;;;;;;;;;;;;;;25.66;76.56;96870.48;596941;237;68891;-62
2022/07/28 11:38:02;;;;;;;;;;;;;;;25.66;76.47;96865.09;596641;237;68657;-62
2022/07/28 11:40:30;;;;;;;;;;;;;;;25.66;76.50;96857.81;596875;237;63842;-63
2022/07/28 11:43:16;;;;;;;;;;;;;;;25.66;74.09;96863.19;596967;237;68526;-63
2022/07/28 11:45:44;;;;;;;;;;;;;;;25.66;76.17;96857.81;597028;237;68390;-63
2022/07/28 11:48:16;;;;;;;;;;;;;;;25.66;76.06;96847.05;596910;237;63133;-62
2022/07/28 11:50:45;;;;;;;;;;;;;;;25.67;76.12;96843.27;597016;237;66675;-62
2022/07/28 11:53:13;;;;;;;;;;;;;;;25.66;76.55;96836.28;593156;237;66519;-62
2022/07/28 11:55:40;;;;;;;;;;;;;;;25.67;76.37;96845.14;596993;237;62850;-62
2022/07/28 11:58:09;;;;;;;;;;;;;;;25.67;76.40;96842.45;597054;237;68981;-63
2022/07/28 12:00:36;;;;;;;;;;;;;;;25.67;76.60;96845.14;596482;237;66470;-62
2022/07/28 12:03:04;;;;;;;;;;;;;;;25.67;76.54;96848.66;596991;237;65318;-62
2022/07/28 12:05:32;;;;;;;;;;;;;;;25.67;76.48;96842.45;597050;237;68653;-62
2022/07/28 12:08:00;;;;;;;;;;;;;;;25.67;76.49;96837.07;597052;237;68918;-63
2022/07/28 12:10:29;;;;;;;;;;;;;;;25.66;76.42;96822.03;596924;237;65255;-62
2022/07/28 12:12:58;;;;;;;;;;;;;;;25.67;76.53;96832.50;597031;237;66482;-62
2022/07/28 12:15:26;;;;;;;;;;;;;;;25.67;76.21;96819.05;597032;237;66463;-62
2022/07/28 12:17:54;;;;;;;;;;;;;;;25.67;71.51;96810.98;596947;237;63008;-63
2022/07/28 12:20:21;;;;;;;;;;;;;;;25.72;68.46;96826.19;597003;237;66635;-63
2022/07/28 12:22:56;;;;;;;;;;;;;;;25.73;68.59;96827.80;597062;237;68871;-63
2022/07/28 12:25:24;;;;;;;;;;;;;;;25.77;73.58;96836.83;596775;237;65071;-62
2022/07/28 12:27:52;;;;;;;;;;;;;;;25.75;72.03;96838.23;597000;237;68646;-63
2022/07/28 12:30:24;;;;;;;;;;;;;;;25.74;70.24;96834.75;591791;237;68531;-65
2022/07/28 12:32:52;;;;;;;;;;;;;;;25.75;69.71;96839.03;597464;236;65204;-64
2022/07/28 12:35:21;;;;;;;;;;;;;;;25.77;67.84;96838.73;587615;237;70392;-64
2022/07/28 12:37:49;;;;;;;;;;;;;;;25.78;68.44;96841.13;597664;237;67119;-64
2022/07/28 12:40:18;;;;;;;;;;;;;;;25.78;68.55;96841.13;597695;237;65022;-65
2022/07/28 12:42:48;;;;;;;;;;;;;;;25.79;68.86;96833.84;597744;237;68817;-64
2022/07/28 12:45:16;;;;;;;;;;;;;;;25.79;68.25;96833.84;597633;237;74414;-65
2022/07/28 12:47:43;;;;;;;;;;;;;;;25.80;68.29;96835.42;597785;237;64915;-65
2022/07/28 12:50:13;;;;;;;;;;;;;;;25.79;68.36;96826.56;597787;237;68701;-66
2022/07/28 12:52:44;;;;;;;;;;;;;;;25.79;70.92;96829.25;597730;237;66713;-65
2022/07/28 12:55:12;;;;;;;;;;;;;;;25.78;70.12;96833.06;597671;237;63055;-66